Time,TemperatureF,DewpointF,PressureIn,WindDirection,WindDirectionDegrees,WindSpeedMPH,WindSpeedGustMPH,Humidity,HourlyPrecipIn,Conditions,Clouds,dailyrainin,SolarRadiationWatts/m^2,SoftwareType,DateUTC
2013-05-06 00:01:00,48.1,35.0,29.82,NNW,339,0.0,-999.0,60,-99.99,,,0.00,0,weatherlink.com 1.10,2013-05-06 07:01:00,
2013-05-06 00:16:00,47.0,34.0,29.82,NNW,330,0.0,-999.0,61,-99.99,,,0.00,0,weatherlink.com 1.10,2013-05-06 07:16:00,
2013-05-06 00:31:00,46.7,34.0,29.81,NW,314,0.0,-999.0,61,-99.99,,,0.00,0,weatherlink.com 1.10,2013-05-06 07:31:00,
2013-05-06 00:46:00,45.3,35.0,29.82,NW,314,0.0,-999.0,67,-99.99,,,0.00,0,weatherlink.com 1.10,2013-05-06 07:46:00,
2013-05-06 01:01:00,45.3,35.0,29.82,NW,314,0.0,-999.0,67,-99.99,,,0.00,0,weatherlink.com 1.10,2013-05-06 08:01:00,
2013-05-06 01:16:00,45.9,35.0,29.82,NW,314,3.0,-999.0,66,-99.99,,,0.00,0,weatherlink.com 1.10,2013-05-06 08:16:00,
2013-05-06 01:31:00,46.2,35.0,29.82,SW,232,2.0,-999.0,65,-99.99,,,0.00,0,weatherlink.com 1.10,2013-05-06 08:31:00,
2013-05-06 01:46:00,46.3,34.0,29.82,WSW,248,0.0,-999.0,62,-99.99,,,0.00,0,weatherlink.com 1.10,2013-05-06 08:46:00,
2013-05-06 02:02:00,46.9,36.0,29.82,SW,234,2.0,-999.0,65,-99.99,,,0.00,0,weatherlink.com 1.10,2013-05-06 09:02:00,
2013-05-06 02:17:00,46.6,35.0,29.82,SW,232,0.0,-999.0,65,-99.99,,,0.00,0,weatherlink.com 1.10,2013-05-06 09:17:00,
2013-05-06 02:32:00,46.9,36.0,29.82,WSW,247,0.0,-999.0,65,-99.99,,,0.00,0,weatherlink.com 1.10,2013-05-06 09:32:00,
2013-05-06 02:47:00,46.2,36.0,29.82,WSW,247,0.0,-999.0,67,-99.99,,,0.00,0,weatherlink.com 1.10,2013-05-06 09:47:00,
2013-05-06 03:02:00,45.7,36.0,29.82,WSW,247,0.0,-999.0,68,-99.99,,,0.00,0,weatherlink.com 1.10,2013-05-06 10:02:00,
2013-05-06 03:17:00,48.3,37.0,29.81,South,175,0.0,-999.0,64,-99.99,,,0.00,0,weatherlink.com 1.10,2013-05-06 10:17:00,
2013-05-06 03:32:00,48.7,36.0,29.80,South,180,2.0,-999.0,63,-99.99,,,0.00,0,weatherlink.com 1.10,2013-05-06 10:32:00,
2013-05-06 03:47:00,48.0,36.0,29.81,South,179,0.0,-999.0,63,-99.99,,,0.00,0,weatherlink.com 1.10,2013-05-06 10:47:00,
2013-05-06 04:02:00,47.7,36.0,29.81,South,179,0.0,-999.0,64,-99.99,,,0.00,0,weatherlink.com 1.10,2013-05-06 11:02:00,
2013-05-06 04:17:00,47.9,36.0,29.82,South,179,0.0,-999.0,64,-99.99,,,0.00,0,weatherlink.com 1.10,2013-05-06 11:17:00,
2013-05-06 04:32:00,47.9,37.0,29.82,South,179,0.0,-999.0,65,-99.99,,,0.00,0,weatherlink.com 1.10,2013-05-06 11:32:00,
2013-05-06 04:47:00,47.9,37.0,29.82,South,179,0.0,-999.0,66,-99.99,,,0.00,0,weatherlink.com 1.10,2013-05-06 11:47:00,
2013-05-06 05:02:00,48.6,38.0,29.82,South,179,2.0,-999.0,67,-99.99,,,0.00,0,weatherlink.com 1.10,2013-05-06 12:02:00,
2013-05-06 05:17:00,48.5,40.0,29.82,South,179,0.0,-999.0,72,-99.99,,,0.00,0,weatherlink.com 1.10,2013-05-06 12:17:00,
2013-05-06 05:32:00,48.0,40.0,29.82,South,179,0.0,-999.0,75,-99.99,,,0.00,0,weatherlink.com 1.10,2013-05-06 12:32:00,
2013-05-06 05:47:00,47.8,41.0,29.82,South,179,0.0,-999.0,76,-99.99,,,0.00,0,weatherlink.com 1.10,2013-05-06 12:47:00,
2013-05-06 06:02:00,47.7,41.0,29.82,South,179,0.0,-999.0,78,-99.99,,,0.00,0,weatherlink.com 1.10,2013-05-06 13:02:00,
2013-05-06 06:17:00,47.6,42.0,29.82,South,179,0.0,-999.0,80,-99.99,,,0.00,9,weatherlink.com 1.10,2013-05-06 13:17:00,
2013-05-06 06:32:00,47.3,42.0,29.83,South,179,0.0,-999.0,82,-99.99,,,0.00,28,weatherlink.com 1.10,2013-05-06 13:32:00,
2013-05-06 06:47:00,47.3,42.0,29.84,South,179,0.0,-999.0,83,-99.99,,,0.00,16,weatherlink.com 1.10,2013-05-06 13:47:00,
2013-05-06 07:02:00,47.3,42.0,29.83,South,180,1.0,-999.0,83,-99.99,,,0.01,37,weatherlink.com 1.10,2013-05-06 14:02:00,
2013-05-06 07:17:00,47.4,43.0,29.84,South,180,0.0,-999.0,84,-99.99,,,0.01,65,weatherlink.com 1.10,2013-05-06 14:17:00,
2013-05-06 07:32:00,48.4,44.0,29.84,South,180,0.0,-999.0,85,-99.99,,,0.02,339,weatherlink.com 1.10,2013-05-06 14:32:00,
2013-05-06 07:47:00,49.3,45.0,29.84,NNW,333,5.0,-999.0,84,-99.99,,,0.02,269,weatherlink.com 1.10,2013-05-06 14:47:00,
2013-05-06 08:02:00,50.4,44.0,29.84,NNW,333,2.0,-999.0,80,-99.99,,,0.02,128,weatherlink.com 1.10,2013-05-06 15:02:00,
2013-05-06 08:17:00,50.3,43.0,29.85,NNW,329,1.0,-999.0,77,-99.99,,,0.02,114,weatherlink.com 1.10,2013-05-06 15:17:00,
2013-05-06 08:32:00,49.8,43.0,29.85,WNW,298,5.0,-999.0,77,-99.99,,,0.02,158,weatherlink.com 1.10,2013-05-06 15:32:00,
2013-05-06 08:47:00,49.7,43.0,29.86,West,260,2.0,-999.0,77,-99.99,,,0.02,134,weatherlink.com 1.10,2013-05-06 15:47:00,
2013-05-06 09:02:00,50.4,42.0,29.86,West,273,4.0,-999.0,74,-99.99,,,0.02,209,weatherlink.com 1.10,2013-05-06 16:02:00,
2013-05-06 09:17:00,51.4,43.0,29.87,West,269,0.0,-999.0,72,-99.99,,,0.02,272,weatherlink.com 1.10,2013-05-06 16:17:00,
2013-05-06 09:32:00,51.1,43.0,29.87,West,266,2.0,-999.0,73,-99.99,,,0.02,352,weatherlink.com 1.10,2013-05-06 16:32:00,
2013-05-06 09:47:00,52.3,44.0,29.88,WNW,288,5.0,-999.0,72,-99.99,,,0.02,359,weatherlink.com 1.10,2013-05-06 16:47:00,
2013-05-06 10:02:00,51.6,42.0,29.88,West,280,0.0,-999.0,70,-99.99,,,0.02,258,weatherlink.com 1.10,2013-05-06 17:02:00,
2013-05-06 10:17:00,52.0,42.0,29.88,West,280,0.0,-999.0,70,-99.99,,,0.02,454,weatherlink.com 1.10,2013-05-06 17:17:00,
2013-05-06 10:32:00,52.5,43.0,29.88,NW,318,0.0,-999.0,70,-99.99,,,0.02,401,weatherlink.com 1.10,2013-05-06 17:32:00,
2013-05-06 10:47:00,53.6,44.0,29.89,WNW,294,7.0,-999.0,70,-99.99,,,0.02,817,weatherlink.com 1.10,2013-05-06 17:47:00,
2013-05-06 11:02:00,54.1,42.0,29.88,WNW,298,3.0,-999.0,63,-99.99,,,0.02,334,weatherlink.com 1.10,2013-05-06 18:02:00,
2013-05-06 11:18:00,54.7,40.0,29.89,WSW,239,0.0,-999.0,58,-99.99,,,0.02,322,weatherlink.com 1.10,2013-05-06 18:18:00,
2013-05-06 11:33:00,57.5,41.0,29.89,NNW,341,10.0,-999.0,55,-99.99,,,0.02,1125,weatherlink.com 1.10,2013-05-06 18:33:00,
2013-05-06 11:48:00,56.4,37.0,29.89,SW,236,1.0,-999.0,49,-99.99,,,0.02,1095,weatherlink.com 1.10,2013-05-06 18:48:00,
2013-05-06 12:03:00,58.9,40.0,29.89,West,261,5.0,-999.0,49,-99.99,,,0.02,958,weatherlink.com 1.10,2013-05-06 19:03:00,
2013-05-06 12:18:00,59.8,38.0,29.88,WSW,257,5.0,-999.0,45,-99.99,,,0.02,951,weatherlink.com 1.10,2013-05-06 19:18:00,
2013-05-06 12:33:00,59.3,38.0,29.89,South,176,2.0,-999.0,45,-99.99,,,0.02,998,weatherlink.com 1.10,2013-05-06 19:33:00,
2013-05-06 12:48:00,61.2,39.0,29.88,South,179,1.0,-999.0,44,-99.99,,,0.02,1111,weatherlink.com 1.10,2013-05-06 19:48:00,
2013-05-06 13:03:00,62.1,35.0,29.87,SSW,199,3.0,-999.0,37,-99.99,,,0.02,1055,weatherlink.com 1.10,2013-05-06 20:03:00,
2013-05-06 13:18:00,61.9,34.0,29.87,South,178,4.0,-999.0,35,-99.99,,,0.02,984,weatherlink.com 1.10,2013-05-06 20:18:00,
2013-05-06 13:33:00,63.0,33.0,29.87,SSW,200,2.0,-999.0,32,-99.99,,,0.02,993,weatherlink.com 1.10,2013-05-06 20:33:00,
2013-05-06 13:48:00,63.3,35.0,29.87,SW,215,3.0,-999.0,35,-99.99,,,0.02,972,weatherlink.com 1.10,2013-05-06 20:48:00,
2013-05-06 14:03:00,63.1,35.0,29.87,SW,228,5.0,-999.0,35,-99.99,,,0.02,925,weatherlink.com 1.10,2013-05-06 21:03:00,
2013-05-06 14:18:00,62.7,35.0,29.87,South,188,2.0,-999.0,35,-99.99,,,0.02,898,weatherlink.com 1.10,2013-05-06 21:18:00,
2013-05-06 14:33:00,62.2,34.0,29.87,South,182,2.0,-999.0,35,-99.99,,,0.02,858,weatherlink.com 1.10,2013-05-06 21:33:00,
2013-05-06 14:48:00,64.1,35.0,29.86,WSW,254,4.0,-999.0,34,-99.99,,,0.02,840,weatherlink.com 1.10,2013-05-06 21:48:00,
2013-05-06 15:03:00,63.9,35.0,29.86,WSW,250,0.0,-999.0,34,-99.99,,,0.02,847,weatherlink.com 1.10,2013-05-06 22:03:00,
2013-05-06 15:18:00,62.2,33.0,29.85,South,189,2.0,-999.0,34,-99.99,,,0.02,786,weatherlink.com 1.10,2013-05-06 22:18:00,
2013-05-06 15:33:00,62.5,32.0,29.85,WNW,282,3.0,-999.0,32,-99.99,,,0.02,751,weatherlink.com 1.10,2013-05-06 22:33:00,
2013-05-06 15:48:00,64.3,34.0,29.85,SSW,199,2.0,-999.0,33,-99.99,,,0.02,717,weatherlink.com 1.10,2013-05-06 22:48:00,
2013-05-06 16:03:00,63.3,34.0,29.85,NW,312,6.0,-999.0,33,-99.99,,,0.02,680,weatherlink.com 1.10,2013-05-06 23:03:00,
2013-05-06 16:18:00,63.2,33.0,29.85,SW,228,3.0,-999.0,33,-99.99,,,0.02,657,weatherlink.com 1.10,2013-05-06 23:18:00,
2013-05-06 16:33:00,62.6,35.0,29.85,South,180,5.0,-999.0,36,-99.99,,,0.02,666,weatherlink.com 1.10,2013-05-06 23:33:00,
2013-05-06 16:48:00,62.8,35.0,29.84,SSW,199,1.0,-999.0,35,-99.99,,,0.02,596,weatherlink.com 1.10,2013-05-06 23:48:00,
2013-05-06 17:03:00,63.4,34.0,29.84,WSW,242,0.0,-999.0,34,-99.99,,,0.02,548,weatherlink.com 1.10,2013-05-07 00:03:00,
2013-05-06 17:18:00,62.2,35.0,29.85,WSW,250,0.0,-999.0,36,-99.99,,,0.02,492,weatherlink.com 1.10,2013-05-07 00:18:00,
2013-05-06 17:33:00,62.6,34.0,29.85,WNW,285,5.0,-999.0,35,-99.99,,,0.02,383,weatherlink.com 1.10,2013-05-07 00:33:00,
2013-05-06 17:48:00,61.8,34.0,29.85,WNW,288,4.0,-999.0,36,-99.99,,,0.02,325,weatherlink.com 1.10,2013-05-07 00:48:00,
2013-05-06 18:03:00,61.5,34.0,29.85,West,259,1.0,-999.0,36,-99.99,,,0.02,267,weatherlink.com 1.10,2013-05-07 01:03:00,
2013-05-06 18:18:00,60.4,34.0,29.85,WSW,238,0.0,-999.0,38,-99.99,,,0.02,220,weatherlink.com 1.10,2013-05-07 01:18:00,
2013-05-06 18:33:00,59.5,34.0,29.85,WSW,240,1.0,-999.0,39,-99.99,,,0.02,149,weatherlink.com 1.10,2013-05-07 01:33:00,
2013-05-06 18:48:00,59.0,35.0,29.85,WSW,258,5.0,-999.0,40,-99.99,,,0.02,53,weatherlink.com 1.10,2013-05-07 01:48:00,
2013-05-06 19:03:00,57.0,35.0,29.85,WSW,240,2.0,-999.0,44,-99.99,,,0.02,51,weatherlink.com 1.10,2013-05-07 02:03:00,
2013-05-06 19:18:00,55.9,35.0,29.86,WSW,253,3.0,-999.0,46,-99.99,,,0.02,19,weatherlink.com 1.10,2013-05-07 02:18:00,
2013-05-06 19:33:00,54.8,36.0,29.86,WSW,248,5.0,-999.0,49,-99.99,,,0.02,7,weatherlink.com 1.10,2013-05-07 02:33:00,
2013-05-06 19:48:00,54.0,36.0,29.86,WSW,254,2.0,-999.0,50,-99.99,,,0.02,0,weatherlink.com 1.10,2013-05-07 02:48:00,
2013-05-06 20:03:00,53.3,35.0,29.87,West,269,1.0,-999.0,51,-99.99,,,0.02,0,weatherlink.com 1.10,2013-05-07 03:03:00,
2013-05-06 20:18:00,52.0,35.0,29.87,West,265,3.0,-999.0,53,-99.99,,,0.02,0,weatherlink.com 1.10,2013-05-07 03:18:00,
2013-05-06 20:33:00,51.8,35.0,29.88,WSW,251,3.0,-999.0,54,-99.99,,,0.02,0,weatherlink.com 1.10,2013-05-07 03:33:00,
2013-05-06 20:48:00,51.4,35.0,29.88,WSW,251,3.0,-999.0,54,-99.99,,,0.02,0,weatherlink.com 1.10,2013-05-07 03:48:00,
2013-05-06 21:03:00,51.3,35.0,29.89,WSW,250,2.0,-999.0,55,-99.99,,,0.02,0,weatherlink.com 1.10,2013-05-07 04:03:00,
2013-05-06 21:18:00,51.4,36.0,29.90,NW,325,5.0,-999.0,55,-99.99,,,0.02,0,weatherlink.com 1.10,2013-05-07 04:18:00,
2013-05-06 21:33:00,51.9,38.0,29.91,NNW,338,6.0,-999.0,59,-99.99,,,0.02,0,weatherlink.com 1.10,2013-05-07 04:33:00,
2013-05-06 21:48:00,51.8,39.0,29.92,NW,325,6.0,-999.0,61,-99.99,,,0.02,0,weatherlink.com 1.10,2013-05-07 04:48:00,
2013-05-06 22:03:00,51.5,39.0,29.93,NW,321,5.0,-999.0,62,-99.99,,,0.02,0,weatherlink.com 1.10,2013-05-07 05:03:00,
2013-05-06 22:18:00,51.5,39.0,29.93,NW,315,0.0,-999.0,62,-99.99,,,0.02,0,weatherlink.com 1.10,2013-05-07 05:18:00,
2013-05-06 22:33:00,51.4,39.0,29.93,WNW,301,0.0,-999.0,62,-99.99,,,0.02,0,weatherlink.com 1.10,2013-05-07 05:33:00,
2013-05-06 22:48:00,50.6,38.0,29.93,WNW,301,1.0,-999.0,63,-99.99,,,0.02,0,weatherlink.com 1.10,2013-05-07 05:48:00,
2013-05-06 23:03:00,49.9,37.0,29.93,West,279,2.0,-999.0,61,-99.99,,,0.02,0,weatherlink.com 1.10,2013-05-07 06:03:00,
2013-05-06 23:18:00,49.4,37.0,29.93,WNW,284,3.0,-999.0,62,-99.99,,,0.02,0,weatherlink.com 1.10,2013-05-07 06:18:00,
2013-05-06 23:33:00,49.0,36.0,29.93,NNW,332,3.0,-999.0,62,-99.99,,,0.02,0,weatherlink.com 1.10,2013-05-07 06:33:00,
2013-05-06 23:48:00,48.6,36.0,29.94,WNW,296,2.0,-999.0,63,-99.99,,,0.02,0,weatherlink.com 1.10,2013-05-07 06:48:00,